createdAt,value
2022-09-12T00:01:10.764Z,10.82
2022-09-12T00:03:38.180Z,13.43
2022-09-12T00:06:08.979Z,11.63
2022-09-12T00:08:35.418Z,12.60
2022-09-12T00:11:04.558Z,13.32
2022-09-12T00:13:30.945Z,11.90
2022-09-12T00:15:57.280Z,12.95
2022-09-12T00:18:23.786Z,11.48
2022-09-12T00:20:50.213Z,13.77
2022-09-12T00:23:16.538Z,13.35
2022-09-12T00:25:46.446Z,11.98
2022-09-12T00:28:13.761Z,12.07
2022-09-12T00:30:43.328Z,12.15
2022-09-12T00:33:10.312Z,11.25
2022-09-12T00:35:46.730Z,13.70
2022-09-12T00:38:14.036Z,12.50
2022-09-12T00:40:40.983Z,11.48
2022-09-12T00:43:11.446Z,13.65
2022-09-12T00:45:37.948Z,10.27
2022-09-12T00:48:04.530Z,9.95
2022-09-12T00:50:32.488Z,11.10
2022-09-12T00:53:00.994Z,12.15
2022-09-12T00:55:33.267Z,9.90
2022-09-12T00:58:05.671Z,12.05
2022-09-12T01:00:32.283Z,15.80
2022-09-12T01:03:00.281Z,9.77
2022-09-12T01:05:27.420Z,11.82
2022-09-12T01:07:54.885Z,11.20
2022-09-12T01:10:21.429Z,11.25
2022-09-12T01:12:48.053Z,11.90
2022-09-12T01:15:14.389Z,13.73
2022-09-12T01:17:58.990Z,14.15
2022-09-12T01:20:48.980Z,16.55
2022-09-12T01:23:33.399Z,16.00
2022-09-12T01:25:59.727Z,16.63
2022-09-12T01:28:26.041Z,15.57
2022-09-12T01:31:03.989Z,14.32
2022-09-12T01:33:42.693Z,14.77
2022-09-12T01:36:24.632Z,15.77
2022-09-12T01:38:59.926Z,15.43
2022-09-12T01:41:44.656Z,15.85
2022-09-12T01:44:14.919Z,14.23
2022-09-12T01:46:49.244Z,15.00
2022-09-12T01:49:21.550Z,16.08
2022-09-12T01:52:11.021Z,17.67
2022-09-12T01:54:43.596Z,16.70
2022-09-12T01:57:12.938Z,11.32
2022-09-12T01:59:41.861Z,13.18
2022-09-12T02:02:31.567Z,14.20
2022-09-12T02:04:59.956Z,13.90
2022-09-12T02:07:30.928Z,13.98
2022-09-12T02:10:01.627Z,14.77
2022-09-12T02:12:31.530Z,15.18
2022-09-12T02:15:02.455Z,15.95
2022-09-12T02:17:29.910Z,15.05
2022-09-12T02:20:02.926Z,13.68
2022-09-12T02:22:29.748Z,15.38
2022-09-12T02:24:59.083Z,15.93
2022-09-12T02:27:43.124Z,17.00
2022-09-12T02:30:09.762Z,15.75
2022-09-12T02:32:36.171Z,19.67
2022-09-12T02:35:11.280Z,17.75
2022-09-12T02:37:56.234Z,14.23
2022-09-12T02:40:23.112Z,13.95
2022-09-12T02:42:49.878Z,14.38
2022-09-12T02:45:16.449Z,14.87
2022-09-12T02:47:48.822Z,15.50
2022-09-12T02:50:15.170Z,15.93
2022-09-12T02:52:42.204Z,14.27
2022-09-12T02:55:11.620Z,13.43
2022-09-12T02:57:38.350Z,15.70
2022-09-12T03:00:05.550Z,13.93
2022-09-12T03:02:50.452Z,13.40
2022-09-12T03:05:20.474Z,14.55
2022-09-12T03:07:46.773Z,13.40
2022-09-12T03:10:19.424Z,14.52
2022-09-12T03:12:48.821Z,13.60
2022-09-12T03:15:18.234Z,12.80
2022-09-12T03:18:14.627Z,13.00
2022-09-12T03:20:40.941Z,12.35
2022-09-12T03:23:24.027Z,12.55
2022-09-12T03:25:54.601Z,12.32
2022-09-12T03:28:22.139Z,12.77
2022-09-12T03:33:19.498Z,12.52
2022-09-12T03:35:46.655Z,13.30
2022-09-12T03:38:13.071Z,12.27
2022-09-12T03:40:39.547Z,13.13
2022-09-12T03:43:06.736Z,13.02
2022-09-12T03:45:33.192Z,14.00
2022-09-12T03:47:59.871Z,13.68
2022-09-12T03:50:26.273Z,15.07
2022-09-12T03:52:52.616Z,12.93
2022-09-12T03:55:19.137Z,14.93
2022-09-12T03:57:45.489Z,11.98
2022-09-12T04:00:15.331Z,12.52
2022-09-12T04:02:44.181Z,13.88
2022-09-12T04:05:10.495Z,13.10
2022-09-12T04:07:36.865Z,13.07
2022-09-12T04:10:04.046Z,12.95
2022-09-12T04:12:30.507Z,13.88
2022-09-12T04:14:56.968Z,11.18
2022-09-12T04:17:23.486Z,13.13
2022-09-12T04:19:49.830Z,11.77
2022-09-12T04:22:16.199Z,10.80
2022-09-12T04:24:42.560Z,13.82
2022-09-12T04:27:08.877Z,13.52
2022-09-12T04:29:35.980Z,12.00
2022-09-12T04:32:03.071Z,13.07
2022-09-12T04:34:30.940Z,12.07
2022-09-12T04:36:57.799Z,14.85
2022-09-12T04:39:24.378Z,12.40
2022-09-12T04:41:50.790Z,12.60
2022-09-12T04:44:17.443Z,14.48
2022-09-12T04:46:45.422Z,11.73
2022-09-12T04:49:12.365Z,13.20
2022-09-12T04:51:39.371Z,14.23
2022-09-12T04:54:07.159Z,12.32
2022-09-12T04:56:36.693Z,14.02
2022-09-12T04:59:03.041Z,12.75
2022-09-12T05:01:30.223Z,12.95
2022-09-12T05:03:57.639Z,14.02
2022-09-12T05:06:25.093Z,10.45
2022-09-12T05:08:52.377Z,13.77
2022-09-12T05:11:46.842Z,11.30
2022-09-12T05:14:15.991Z,11.05
2022-09-12T05:16:45.119Z,13.98
2022-09-12T05:19:14.973Z,12.20
2022-09-12T05:21:41.282Z,14.50
2022-09-12T05:24:07.641Z,12.93
2022-09-12T05:26:34.015Z,14.43
2022-09-12T05:29:00.478Z,13.35
2022-09-12T05:31:27.586Z,16.48
2022-09-12T05:33:54.978Z,16.05
2022-09-12T05:36:29.273Z,14.80
2022-09-12T05:38:56.114Z,15.93
2022-09-12T05:41:26.926Z,12.23
2022-09-12T05:43:54.062Z,13.57
2022-09-12T05:46:21.262Z,14.75
2022-09-12T05:48:51.442Z,10.85
2022-09-12T05:51:21.595Z,14.35
2022-09-12T05:53:51.516Z,13.55
2022-09-12T05:56:18.936Z,15.05
2022-09-12T05:58:47.044Z,12.52
2022-09-12T06:01:17.966Z,11.27
2022-09-12T06:03:45.306Z,12.90
2022-09-12T06:06:15.155Z,14.10
2022-09-12T06:08:42.989Z,14.40
2022-09-12T06:11:11.620Z,14.68
2022-09-12T06:13:39.990Z,13.15
2022-09-12T06:16:08.178Z,12.52
2022-09-12T06:18:35.664Z,11.82
2022-09-12T06:21:03.019Z,12.05
2022-09-12T06:23:29.496Z,14.80
2022-09-12T06:25:55.850Z,13.07
2022-09-12T06:28:22.190Z,13.65
2022-09-12T06:30:48.967Z,11.75
2022-09-12T06:33:15.593Z,11.68
2022-09-12T06:35:42.054Z,10.80
2022-09-12T06:38:09.563Z,12.00
2022-09-12T06:43:02.185Z,14.85
2022-09-12T06:45:28.569Z,13.68
2022-09-12T06:47:55.321Z,12.40
2022-09-12T06:50:21.947Z,12.23
2022-09-12T06:52:49.053Z,22.20
2022-09-12T06:55:19.811Z,57.85
2022-09-12T06:57:47.363Z,29.40
2022-09-12T07:00:14.318Z,17.92
2022-09-12T07:02:40.775Z,16.25
2022-09-12T07:05:08.236Z,13.73
2022-09-12T07:07:35.904Z,15.43
2022-09-12T07:10:02.378Z,16.73
2022-09-12T07:12:29.597Z,23.40
2022-09-12T07:14:55.962Z,28.10
2022-09-12T07:17:22.343Z,19.73
2022-09-12T07:19:48.722Z,20.63
2022-09-12T07:22:15.086Z,14.38
2022-09-12T07:24:41.899Z,13.70
2022-09-12T07:27:08.754Z,11.63
2022-09-12T07:29:37.619Z,12.57
2022-09-12T07:32:05.595Z,11.43
2022-09-12T07:36:58.698Z,11.63
2022-09-12T07:39:25.092Z,13.07
2022-09-12T07:41:51.433Z,12.43
2022-09-12T07:44:17.801Z,11.43
2022-09-12T07:46:44.154Z,11.80
2022-09-12T07:49:12.076Z,11.80
2022-09-12T07:51:38.513Z,12.93
2022-09-12T07:54:09.279Z,14.52
2022-09-12T07:56:38.923Z,12.80
2022-09-12T07:59:05.855Z,12.55
2022-09-12T08:01:32.345Z,11.00
2022-09-12T08:03:59.333Z,10.80
2022-09-12T08:06:26.803Z,11.05
2022-09-12T08:11:20.490Z,12.02
2022-09-12T08:16:17.929Z,10.32
2022-09-12T08:18:44.688Z,10.20
2022-09-12T08:21:15.584Z,15.32
2022-09-12T08:23:42.777Z,13.40
2022-09-12T08:26:09.348Z,14.90
2022-09-12T08:28:36.258Z,16.13
2022-09-12T08:31:06.516Z,11.07
2022-09-12T08:33:33.678Z,9.90
2022-09-12T08:36:07.206Z,9.68
2022-09-12T08:38:34.359Z,12.05
2022-09-12T08:41:06.796Z,13.65
2022-09-12T08:43:54.519Z,11.57
2022-09-12T08:46:27.323Z,10.65
2022-09-12T08:48:55.462Z,9.82
2022-09-12T08:51:22.025Z,10.18
2022-09-12T08:53:50.158Z,10.02
2022-09-12T08:56:16.817Z,10.10
2022-09-12T08:58:44.566Z,7.80
2022-09-12T09:01:17.014Z,7.65
2022-09-12T09:03:58.571Z,6.97
2022-09-12T09:06:30.882Z,10.75
2022-09-12T09:08:58.803Z,9.43
2022-09-12T09:11:34.194Z,5.88
2022-09-12T09:14:22.367Z,7.85
2022-09-12T09:16:50.660Z,6.57
2022-09-12T09:19:23.850Z,4.35
2022-09-12T09:21:57.681Z,6.10
2022-09-12T09:24:26.185Z,4.25
2022-09-12T09:27:00.727Z,3.28
2022-09-12T09:29:29.730Z,3.97
2022-09-12T09:31:58.634Z,4.28
2022-09-12T09:34:26.354Z,4.95
2022-09-12T09:37:15.206Z,5.95
2022-09-12T09:40:01.861Z,5.07
2022-09-12T09:42:40.398Z,3.72
2022-09-12T09:45:18.865Z,2.60
2022-09-12T09:47:46.830Z,3.35
2022-09-12T09:50:16.607Z,3.13
2022-09-12T09:52:43.632Z,1.88
2022-09-12T09:55:16.825Z,3.22
2022-09-12T09:57:44.712Z,5.38
2022-09-12T10:00:25.850Z,3.47
2022-09-12T10:03:03.095Z,3.90
2022-09-12T10:05:29.758Z,1.55
2022-09-12T10:12:49.841Z,2.65
2022-09-12T10:15:23.320Z,2.05
2022-09-12T10:17:50.745Z,0.88
2022-09-12T10:20:36.317Z,1.42
2022-09-12T10:23:17.451Z,1.08
2022-09-12T10:25:46.304Z,1.67
2022-09-12T10:28:21.465Z,2.20
2022-09-12T10:30:52.387Z,0.40
2022-09-12T10:33:18.875Z,0.70
2022-09-12T10:35:47.770Z,1.38
2022-09-12T10:38:17.794Z,1.65
2022-09-12T10:40:44.209Z,1.45
2022-09-12T10:43:17.779Z,1.05
2022-09-12T10:45:44.207Z,2.67
2022-09-12T10:48:31.731Z,1.95
2022-09-12T10:50:59.046Z,1.55
2022-09-12T10:53:29.965Z,1.60
2022-09-12T10:56:10.741Z,2.30
2022-09-12T10:58:43.263Z,1.50
2022-09-12T11:01:39.303Z,2.17
2022-09-12T11:04:20.730Z,0.50
2022-09-12T11:07:19.579Z,1.70
2022-09-12T11:10:04.732Z,1.58
2022-09-12T11:12:40.149Z,1.23
2022-09-12T11:15:24.932Z,0.60
2022-09-12T11:17:56.755Z,0.77
2022-09-12T11:20:32.522Z,0.93
2022-09-12T11:22:58.931Z,1.45
2022-09-12T11:25:31.343Z,0.90
2022-09-12T11:28:22.302Z,1.30
2022-09-12T11:30:59.863Z,1.27
2022-09-12T11:33:43.436Z,1.63
2022-09-12T11:36:25.115Z,2.13
2022-09-12T11:38:57.190Z,1.33
2022-09-12T11:41:31.420Z,1.35
2022-09-12T11:44:02.098Z,1.05
2022-09-12T11:46:36.215Z,2.22
2022-09-12T11:49:05.546Z,1.95
2022-09-12T11:51:44.114Z,1.33
2022-09-12T11:54:13.278Z,1.63
2022-09-12T11:56:42.963Z,2.13
2022-09-12T11:59:15.616Z,2.63
2022-09-12T12:01:48.512Z,2.35
2022-09-12T12:04:16.563Z,1.85
2022-09-12T12:07:03.143Z,0.95
2022-09-12T12:09:31.341Z,1.65
2022-09-12T12:11:58.354Z,1.88
2022-09-12T12:14:26.862Z,2.55
2022-09-12T12:16:53.333Z,2.25
2022-09-12T12:19:19.696Z,1.70
2022-09-12T12:21:46.106Z,3.70
2022-09-12T12:24:17.796Z,1.75
2022-09-12T12:27:04.392Z,1.55
2022-09-12T12:29:43.932Z,2.55
2022-09-12T12:32:10.679Z,1.55
2022-09-12T12:34:38.322Z,1.05
2022-09-12T12:37:20.141Z,2.03
2022-09-12T12:39:53.800Z,3.42
2022-09-12T12:42:35.208Z,1.15
2022-09-12T12:45:04.007Z,2.05
2022-09-12T12:47:39.398Z,2.28
2022-09-12T12:50:08.092Z,1.50
2022-09-12T12:52:45.177Z,2.95
2022-09-12T12:55:21.304Z,2.13
2022-09-12T12:57:49.550Z,0.85
2022-09-12T13:00:24.696Z,2.33
2022-09-12T13:02:55.941Z,3.35
2022-09-12T13:05:24.550Z,1.20
2022-09-12T13:08:04.779Z,1.58
2022-09-12T13:10:31.251Z,1.38
2022-09-12T13:12:59.555Z,1.98
2022-09-12T13:15:38.242Z,1.10
2022-09-12T13:18:07.190Z,1.83
2022-09-12T13:20:37.775Z,2.85
2022-09-12T13:23:04.164Z,2.17
2022-09-12T13:25:36.999Z,1.10
2022-09-12T13:28:12.647Z,3.80
2022-09-12T13:30:40.400Z,1.10
2022-09-12T17:18:15.161Z,2.53
2022-09-12T17:20:41.487Z,2.03
2022-09-12T17:23:09.765Z,2.00
2022-09-12T17:25:36.539Z,1.63
2022-09-12T17:28:05.554Z,3.13
2022-09-12T17:30:35.445Z,2.13
2022-09-12T17:33:01.971Z,2.45
2022-09-12T17:35:28.699Z,1.50
2022-09-12T17:37:55.206Z,1.85
2022-09-12T17:40:28.873Z,1.63
2022-09-12T17:43:08.066Z,2.10
2022-09-12T17:45:34.399Z,1.30
2022-09-12T17:48:01.743Z,2.10
2022-09-12T17:50:31.796Z,2.80
2022-09-12T17:52:59.189Z,3.20
2022-09-12T17:55:25.534Z,5.10
2022-09-12T17:57:52.258Z,3.08
2022-09-12T18:00:38.627Z,3.50
2022-09-12T18:03:05.101Z,2.88
2022-09-12T18:05:31.486Z,2.38
2022-09-12T18:07:57.865Z,4.27
2022-09-12T18:10:25.404Z,1.90
2022-09-12T18:12:51.731Z,2.17
2022-09-12T18:15:18.100Z,3.63
2022-09-12T18:17:44.425Z,3.60
2022-09-12T18:20:10.778Z,3.90
2022-09-12T18:22:37.160Z,4.82
2022-09-12T18:25:03.599Z,4.53
2022-09-12T18:27:29.937Z,5.03
2022-09-12T18:30:19.651Z,3.42
2022-09-12T18:32:42.702Z,2.42
2022-09-12T18:35:09.224Z,3.63
2022-09-12T18:37:35.544Z,3.40
2022-09-12T18:40:02.058Z,3.25
2022-09-12T18:42:28.409Z,3.40
2022-09-12T18:44:54.776Z,3.45
2022-09-12T18:47:21.181Z,3.23
2022-09-12T18:49:47.526Z,3.88
2022-09-12T18:52:15.223Z,6.70
2022-09-12T18:54:41.681Z,4.20
2022-09-12T18:57:07.997Z,4.00
2022-09-12T18:59:34.312Z,2.40
2022-09-12T19:02:01.686Z,3.03
2022-09-12T19:04:28.142Z,4.70
2022-09-12T19:06:54.514Z,6.53
2022-09-12T19:09:21.056Z,5.90
2022-09-12T19:11:50.805Z,4.67
2022-09-12T19:14:18.386Z,4.20
2022-09-12T19:16:44.813Z,6.13
2022-09-12T19:19:11.175Z,3.40
2022-09-12T19:21:37.532Z,3.88
2022-09-12T19:24:05.320Z,3.13
2022-09-12T19:26:32.142Z,3.92
2022-09-12T19:28:59.051Z,5.00
2022-09-12T19:31:25.926Z,4.85
2022-09-12T19:33:52.665Z,2.53
2022-09-12T19:36:44.306Z,3.42
2022-09-12T19:39:07.351Z,3.25
2022-09-12T19:41:34.282Z,4.30
2022-09-12T19:44:00.721Z,3.60
2022-09-12T19:46:27.290Z,3.47
2022-09-12T19:48:53.942Z,3.15
2022-09-12T19:51:21.011Z,4.63
2022-09-12T19:53:48.453Z,3.38
2022-09-12T19:56:14.938Z,3.50
2022-09-12T19:58:42.795Z,5.37
2022-09-12T20:01:10.365Z,4.07
2022-09-12T20:03:36.741Z,2.25
2022-09-12T20:06:07.378Z,3.17
2022-09-12T20:08:33.971Z,4.80
2022-09-12T20:11:00.391Z,4.55
2022-09-12T20:13:26.757Z,7.93
2022-09-12T20:15:53.155Z,6.00
2022-09-12T20:18:19.703Z,10.32
2022-09-12T20:20:46.098Z,7.50
2022-09-12T20:23:12.432Z,5.93
2022-09-12T20:25:38.805Z,6.18
2022-09-12T20:28:05.171Z,5.80
2022-09-12T20:30:31.509Z,5.47
2022-09-12T20:32:57.939Z,4.32
2022-09-12T20:35:24.351Z,6.22
2022-09-12T20:37:50.701Z,5.68
2022-09-12T20:40:17.198Z,5.55
2022-09-12T20:42:43.603Z,4.47
2022-09-12T20:45:10.088Z,4.88
2022-09-12T20:47:36.534Z,4.37
2022-09-12T20:50:02.979Z,3.97
2022-09-12T20:52:29.319Z,6.20
2022-09-12T20:54:55.725Z,4.63
2022-09-12T20:57:23.174Z,7.75
2022-09-12T21:02:16.846Z,6.35
2022-09-12T21:04:43.355Z,4.57
2022-09-12T21:07:09.736Z,4.43
2022-09-12T21:09:36.175Z,2.50
2022-09-12T21:12:02.667Z,2.72
2022-09-12T21:14:29.021Z,4.03
2022-09-12T21:16:55.451Z,4.38
2022-09-12T21:19:21.822Z,3.42
2022-09-12T21:21:48.144Z,3.67
2022-09-12T21:24:17.496Z,2.38
2022-09-12T21:26:43.875Z,3.70
2022-09-12T21:29:10.216Z,3.42
2022-09-12T21:31:37.053Z,5.68
2022-09-12T21:34:03.454Z,4.38
2022-09-12T21:36:29.784Z,4.50
2022-09-12T21:38:59.345Z,5.95
2022-09-12T21:41:25.736Z,3.45
2022-09-12T21:43:52.160Z,6.80
2022-09-12T21:46:18.611Z,2.85
2022-09-12T21:48:45.348Z,5.13
2022-09-12T21:51:11.827Z,5.07
2022-09-12T21:53:38.222Z,3.90
2022-09-12T21:56:05.494Z,4.25
2022-09-12T21:58:31.902Z,2.50
2022-09-12T22:00:59.589Z,2.67
2022-09-12T22:03:26.188Z,2.83
2022-09-12T22:06:02.899Z,5.03
2022-09-12T22:08:30.047Z,3.30
2022-09-12T22:11:00.829Z,2.72
2022-09-12T22:13:27.241Z,3.90
2022-09-12T22:15:53.646Z,5.07
2022-09-12T22:18:20.008Z,3.00
2022-09-12T22:20:46.374Z,7.10
2022-09-12T22:23:31.465Z,4.45
2022-09-12T22:25:58.897Z,5.10
2022-09-12T22:30:54.403Z,3.27
2022-09-12T22:33:21.213Z,5.45
2022-09-12T22:35:47.597Z,2.92
2022-09-12T22:38:13.986Z,5.03
2022-09-12T22:40:40.379Z,3.67
2022-09-12T22:43:06.796Z,4.72
2022-09-12T22:45:33.122Z,4.50
2022-09-12T22:48:00.985Z,4.90
2022-09-12T22:50:27.779Z,4.18
2022-09-12T22:52:54.113Z,4.93
2022-09-12T22:55:20.479Z,5.32
2022-09-12T22:57:46.808Z,3.67
2022-09-12T23:00:13.976Z,8.13
2022-09-12T23:02:40.370Z,5.53
2022-09-12T23:05:06.813Z,3.97
2022-09-12T23:07:33.540Z,5.93
2022-09-12T23:09:59.918Z,7.25
2022-09-12T23:12:26.321Z,4.28
2022-09-12T23:14:52.656Z,5.32
2022-09-12T23:17:19.009Z,5.38
2022-09-12T23:19:45.392Z,3.22
2022-09-12T23:22:11.737Z,3.35
2022-09-12T23:24:38.354Z,5.50
2022-09-12T23:27:05.137Z,4.33
2022-09-12T23:29:35.397Z,5.13
2022-09-12T23:32:02.525Z,4.10
2022-09-12T23:34:29.209Z,7.82
2022-09-12T23:36:56.506Z,4.18
2022-09-12T23:39:26.142Z,6.40
2022-09-12T23:41:52.878Z,6.82
2022-09-12T23:44:19.240Z,7.32
2022-09-12T23:46:45.571Z,4.38
2022-09-12T23:49:11.933Z,7.15
2022-09-12T23:51:38.273Z,6.05
2022-09-12T23:54:04.635Z,4.93
2022-09-12T23:56:30.982Z,3.90
2022-09-12T23:58:57.368Z,4.38
